TimeEST,TemperatureF,Dew PointF,Humidity,Sea Level PressureIn,VisibilityMPH,Wind Direction,Wind SpeedMPH,Gust SpeedMPH,PrecipitationIn,Events,Conditions,WindDirDegrees,DateUTC
12:56 AM,35.1,33.1,92,30.09,10.0,Calm,Calm,-,N/A,,Clear,0,2012-12-28 05:56:00
1:56 AM,34.0,32.0,92,30.09,10.0,Calm,Calm,-,N/A,,Partly Cloudy,0,2012-12-28 06:56:00
2:56 AM,33.1,32.0,96,30.09,9.0,Calm,Calm,-,N/A,,Partly Cloudy,0,2012-12-28 07:56:00
3:56 AM,33.1,30.9,92,30.09,10.0,Calm,Calm,-,N/A,,Mostly Cloudy,0,2012-12-28 08:56:00
4:56 AM,32.0,30.0,92,30.10,9.0,Calm,Calm,-,N/A,,Mostly Cloudy,0,2012-12-28 09:56:00
5:56 AM,32.0,30.0,92,30.12,9.0,Calm,Calm,-,N/A,,Mostly Cloudy,0,2012-12-28 10:56:00
6:56 AM,32.0,30.0,92,30.12,8.0,Calm,Calm,-,N/A,,Mostly Cloudy,0,2012-12-28 11:56:00
7:56 AM,32.0,28.9,88,30.14,7.0,Calm,Calm,-,N/A,,Mostly Cloudy,0,2012-12-28 12:56:00
8:56 AM,42.1,37.9,85,30.13,7.0,Calm,Calm,-,N/A,,Mostly Cloudy,0,2012-12-28 13:56:00
9:56 AM,48.0,41.0,77,30.15,10.0,Calm,Calm,-,N/A,,Mostly Cloudy,0,2012-12-28 14:56:00
10:56 AM,53.1,39.9,61,30.12,10.0,Calm,Calm,-,N/A,,Overcast,0,2012-12-28 15:56:00
11:56 AM,57.0,41.0,55,30.09,10.0,SE,3.5,-,N/A,,Overcast,140,2012-12-28 16:56:00
12:56 PM,61.0,43.0,52,30.06,10.0,SSE,4.6,-,N/A,,Overcast,150,2012-12-28 17:56:00
1:56 PM,62.1,42.1,48,30.02,10.0,South,9.2,-,N/A,,Mostly Cloudy,170,2012-12-28 18:56:00
2:56 PM,64.0,45.0,50,30.00,10.0,SE,8.1,-,N/A,,Mostly Cloudy,140,2012-12-28 19:56:00
3:56 PM,63.0,48.0,58,29.98,10.0,East,9.2,-,N/A,,Mostly Cloudy,100,2012-12-28 20:56:00
4:56 PM,60.1,48.9,67,29.99,10.0,East,8.1,-,N/A,,Mostly Cloudy,90,2012-12-28 21:56:00
5:56 PM,55.4,48.2,77,30.01,10.0,NE,4.6,-,N/A,,Mostly Cloudy,50,2012-12-28 22:56:00
6:56 PM,54.0,48.9,83,30.02,10.0,NE,4.6,-,N/A,,Mostly Cloudy,50,2012-12-28 23:56:00
7:56 PM,54.0,50.0,86,29.99,10.0,East,5.8,-,N/A,,Overcast,90,2012-12-29 00:56:00
8:56 PM,54.0,50.0,86,29.98,10.0,ESE,3.5,-,N/A,,Overcast,110,2012-12-29 01:56:00
9:56 PM,55.0,52.0,89,29.97,10.0,Calm,Calm,-,N/A,,Overcast,0,2012-12-29 02:56:00
10:56 PM,55.9,53.1,90,29.94,10.0,SSE,3.5,-,N/A,,Overcast,160,2012-12-29 03:56:00
11:03 PM,55.4,53.6,94,29.93,10.0,SSE,4.6,-,N/A,,Overcast,150,2012-12-29 04:03:00
11:56 PM,59.0,54.0,83,29.91,10.0,SSE,9.2,-,N/A,,Overcast,160,2012-12-29 04:56:00